Alma, Wisconsin
Current Conditions -  °F | °C
As of 3:34 PM on Friday 24 Oct 2014 (Local Time) from KONA Reporting Station
Overcast Overcast  
Wind Chill: 61°   Ceiling: 1400
Heat Index: 61°   Visibility: 10mi
Dew Point: 55°   Wind: 7mph
Humidity: 82%   Direction: 230°SW
Pressure: 29.87"   Gusts: NA
Location:  44.32°N, 91.91°W
Report Text: KONA 242034Z AUTO 23006KT 10SM OVC014 16/13 A2987 RMK AO2
Loading
Personal Weather Stations






























Interactive Weather Map
Tropical Storm Tracking
New forecast layout! Learn more

10-Day Weather Forecast

Advertisements
Track Severe Weather on mobile